Time;durP1;ratioP1;P1;durP2;ratioP2;P2;SDS_P1;SDS_P2;PMS_P1;PMS_P2;Temp;Humidity;BMP_temperature;BMP_pressure;BME280_temperature;BME280_humidity;BME280_pressure;Samples;Min_cycle;Max_cycle;Signal;HPM_P1;HPM_P2
2023/02/18 00:00:13;;;;;;;7.73;2.43;;;7.90;99.90;;;;;;4163259;28;20246;-77
2023/02/18 00:02:15;;;;;;;10.27;2.20;;;7.90;99.90;;;;;;4163203;28;20227;-75
2023/02/18 00:04:17;;;;;;;8.07;2.27;;;7.80;99.90;;;;;;4165019;28;20459;-76
2023/02/18 00:06:21;;;;;;;6.63;2.10;;;7.80;99.90;;;;;;4164413;28;20497;-76
2023/02/18 00:08:24;;;;;;;9.03;2.27;;;7.80;99.90;;;;;;4163501;28;20489;-76
2023/02/18 00:10:26;;;;;;;6.30;1.90;;;7.70;99.90;;;;;;4161765;28;20442;-75
2023/02/18 00:12:30;;;;;;;7.60;2.30;;;7.70;99.90;;;;;;4162533;28;20611;-74
2023/02/18 00:14:31;;;;;;;3.70;2.17;;;7.60;99.90;;;;;;4161817;28;20473;-75
2023/02/18 00:16:34;;;;;;;7.50;2.40;;;7.60;99.90;;;;;;4161497;28;20516;-74
2023/02/18 00:18:35;;;;;;;8.60;2.93;;;7.50;99.90;;;;;;4163225;28;20454;-75
2023/02/18 00:20:39;;;;;;;9.00;2.60;;;7.50;99.90;;;;;;4162731;28;21101;-75
2023/02/18 00:22:41;;;;;;;8.93;2.57;;;7.50;99.90;;;;;;4159983;28;20479;-76
2023/02/18 00:24:44;;;;;;;9.33;2.70;;;7.50;99.90;;;;;;4163034;28;20484;-76
2023/02/18 00:26:49;;;;;;;13.20;3.47;;;7.50;99.90;;;;;;4160394;28;20454;-75
2023/02/18 00:28:52;;;;;;;17.83;4.53;;;7.50;99.90;;;;;;4161679;28;20496;-76
2023/02/18 00:30:53;;;;;;;11.00;3.20;;;7.50;99.90;;;;;;4161290;28;20543;-75
2023/02/18 00:32:55;;;;;;;9.67;2.80;;;7.50;99.90;;;;;;4159729;28;20478;-76
2023/02/18 00:34:57;;;;;;;6.80;2.53;;;7.40;99.90;;;;;;4165689;28;20515;-75
2023/02/18 00:36:59;;;;;;;7.97;2.10;;;7.50;99.90;;;;;;4162107;28;20508;-75
2023/02/18 00:39:03;;;;;;;5.60;2.20;;;7.50;99.90;;;;;;4163468;28;20446;-75
2023/02/18 00:41:07;;;;;;;8.37;2.80;;;7.50;99.90;;;;;;4165197;28;20473;-75
2023/02/18 00:43:09;;;;;;;7.30;1.70;;;7.40;99.90;;;;;;4159125;28;21034;-76
2023/02/18 00:45:11;;;;;;;7.43;1.60;;;7.40;99.90;;;;;;4162068;28;20485;-74
2023/02/18 00:47:12;;;;;;;8.77;2.40;;;7.40;99.90;;;;;;4162420;28;20491;-74
2023/02/18 00:49:14;;;;;;;5.47;1.77;;;7.40;99.90;;;;;;4162556;28;20528;-75
2023/02/18 00:51:16;;;;;;;7.77;1.70;;;7.40;99.90;;;;;;4163568;28;20457;-75
2023/02/18 00:53:18;;;;;;;8.40;1.60;;;7.30;99.90;;;;;;4160232;28;20501;-74
2023/02/18 00:55:20;;;;;;;5.57;1.40;;;7.30;99.90;;;;;;4162273;28;20465;-75
2023/02/18 00:57:24;;;;;;;5.57;1.40;;;7.30;99.90;;;;;;4161750;28;20814;-74
2023/02/18 00:59:26;;;;;;;7.03;1.20;;;7.30;99.90;;;;;;4164341;28;21584;-75
2023/02/18 01:01:28;;;;;;;9.00;1.50;;;7.30;99.90;;;;;;4157549;28;20469;-74
2023/02/18 01:03:29;;;;;;;9.63;1.80;;;7.30;99.90;;;;;;4158830;28;20556;-74
2023/02/18 01:05:31;;;;;;;9.07;1.50;;;7.30;99.90;;;;;;4156488;28;20562;-74
2023/02/18 01:07:33;;;;;;;6.80;1.40;;;7.30;99.90;;;;;;4161534;28;20545;-74
2023/02/18 01:09:35;;;;;;;6.93;1.40;;;7.30;99.90;;;;;;4160087;28;20482;-75
2023/02/18 01:11:37;;;;;;;12.00;1.50;;;7.30;99.90;;;;;;4162272;28;21104;-74
2023/02/18 01:13:41;;;;;;;6.60;1.40;;;7.30;99.90;;;;;;4161338;28;20568;-75
2023/02/18 01:15:45;;;;;;;8.27;1.70;;;7.30;99.90;;;;;;4162329;28;20549;-75
2023/02/18 01:17:47;;;;;;;7.87;1.40;;;7.30;99.90;;;;;;4160561;28;20445;-76
2023/02/18 01:19:49;;;;;;;9.13;1.60;;;7.30;99.90;;;;;;4162102;28;20485;-76
2023/02/18 01:21:51;;;;;;;4.97;1.33;;;7.20;99.90;;;;;;4159526;28;20459;-76
2023/02/18 01:23:52;;;;;;;8.17;1.60;;;7.30;99.90;;;;;;4161383;28;20508;-74
2023/02/18 01:25:55;;;;;;;7.83;1.40;;;7.30;99.90;;;;;;4161929;28;20492;-75
2023/02/18 01:27:57;;;;;;;6.10;1.47;;;7.30;99.90;;;;;;4161489;28;20476;-75
2023/02/18 01:30:00;;;;;;;9.13;1.70;;;7.30;99.90;;;;;;4161560;28;20457;-75
2023/02/18 01:32:02;;;;;;;12.70;2.53;;;7.30;99.90;;;;;;4163686;28;20457;-75
2023/02/18 01:34:04;;;;;;;7.87;2.13;;;7.30;99.90;;;;;;4160822;28;20564;-76
2023/02/18 01:36:07;;;;;;;5.63;1.30;;;7.30;99.90;;;;;;4161428;28;20497;-75
2023/02/18 01:38:09;;;;;;;8.47;1.30;;;7.30;99.90;;;;;;4156400;28;20469;-75
2023/02/18 01:40:15;;;;;;;7.23;1.80;;;7.30;99.90;;;;;;4162325;28;20568;-76
2023/02/18 01:42:20;;;;;;;7.13;1.67;;;7.30;99.90;;;;;;4166120;28;20931;-75
2023/02/18 01:44:25;;;;;;;8.40;1.40;;;7.30;99.90;;;;;;4160316;28;20543;-76
2023/02/18 01:46:28;;;;;;;13.10;1.40;;;7.30;99.90;;;;;;4161334;28;20551;-75
2023/02/18 01:48:34;;;;;;;10.17;1.80;;;7.30;99.90;;;;;;4160986;28;20469;-75
2023/02/18 01:50:39;;;;;;;9.90;1.27;;;7.30;99.90;;;;;;4160287;28;20462;-75
2023/02/18 01:52:41;;;;;;;5.97;1.70;;;7.30;99.90;;;;;;4156690;28;20580;-75
2023/02/18 01:54:45;;;;;;;9.90;1.40;;;7.30;99.90;;;;;;4160531;28;20469;-75
2023/02/18 01:56:50;;;;;;;7.30;1.30;;;7.30;99.90;;;;;;4161371;28;20484;-75
2023/02/18 01:58:56;;;;;;;9.17;1.93;;;7.20;99.90;;;;;;4162855;28;21163;-75
2023/02/18 02:00:58;;;;;;;7.27;1.40;;;7.30;99.90;;;;;;4159454;28;20523;-75
2023/02/18 02:03:01;;;;;;;7.63;1.70;;;7.20;99.90;;;;;;4160961;28;20567;-76
2023/02/18 02:05:04;;;;;;;12.27;2.37;;;7.20;99.90;;;;;;4159618;28;20552;-75
2023/02/18 02:07:06;;;;;;;5.83;1.40;;;7.20;99.90;;;;;;4160875;28;20457;-75
2023/02/18 02:09:11;;;;;;;7.07;1.50;;;7.20;99.90;;;;;;4161916;28;20783;-75
2023/02/18 02:11:24;;;;;;;6.20;1.20;;;7.30;99.90;;;;;;4161825;28;20464;-76
2023/02/18 02:13:36;;;;;;;7.67;1.47;;;7.30;99.90;;;;;;4160079;28;20481;-75
2023/02/18 02:15:44;;;;;;;9.17;1.63;;;7.30;99.90;;;;;;4159815;28;20471;-75
2023/02/18 02:17:55;;;;;;;13.60;2.00;;;7.40;99.90;;;;;;4160411;28;20953;-74
2023/02/18 02:20:23;;;;;;;4.40;1.47;;;7.30;99.90;;;;;;4165551;28;20484;-75
2023/02/18 02:23:01;;;;;;;9.37;1.50;;;7.40;99.90;;;;;;4164291;28;20507;-75
2023/02/18 02:25:16;;;;;;;12.70;1.43;;;7.40;99.90;;;;;;4164843;28;20540;-75
2023/02/18 02:27:29;;;;;;;6.50;1.37;;;7.40;99.90;;;;;;4164441;28;20461;-75
2023/02/18 02:29:59;;;;;;;5.50;1.97;;;7.40;99.90;;;;;;4164870;28;20628;-74
2023/02/18 02:32:19;;;;;;;14.13;1.80;;;7.40;99.90;;;;;;4161489;28;20474;-76
2023/02/18 02:34:52;;;;;;;8.10;1.83;;;7.40;99.90;;;;;;4161674;28;20501;-75
2023/02/18 02:37:00;;;;;;;5.20;1.40;;;7.40;99.90;;;;;;4157399;28;20547;-76
2023/02/18 02:39:13;;;;;;;7.97;1.70;;;7.40;99.90;;;;;;4162239;28;20461;-76
2023/02/18 02:41:26;;;;;;;5.83;1.57;;;7.40;99.90;;;;;;4163227;28;20870;-76
2023/02/18 02:43:35;;;;;;;11.07;2.27;;;7.50;99.90;;;;;;4164678;28;20501;-76
2023/02/18 02:45:49;;;;;;;14.73;1.80;;;7.50;99.90;;;;;;4164850;28;20831;-76
2023/02/18 02:47:59;;;;;;;13.97;1.87;;;7.50;99.90;;;;;;4164788;28;20843;-76
2023/02/18 02:50:08;;;;;;;10.83;1.80;;;7.50;99.90;;;;;;4163127;28;20521;-76
2023/02/18 02:52:15;;;;;;;12.87;2.00;;;7.50;99.90;;;;;;4161997;28;20885;-76
2023/02/18 02:54:21;;;;;;;8.07;1.83;;;7.50;99.90;;;;;;4163052;28;20511;-76
2023/02/18 02:56:25;;;;;;;9.40;1.60;;;7.50;99.90;;;;;;4162637;28;20469;-76
2023/02/18 02:58:27;;;;;;;10.77;1.70;;;7.60;99.90;;;;;;4163794;28;21021;-76
2023/02/18 03:00:40;;;;;;;6.77;1.47;;;7.60;99.90;;;;;;4164218;28;20488;-76
2023/02/18 03:03:02;;;;;;;6.90;1.80;;;7.60;99.90;;;;;;4163356;28;20473;-76
2023/02/18 03:05:16;;;;;;;6.77;1.90;;;7.60;99.90;;;;;;4161878;28;20466;-76
2023/02/18 03:07:37;;;;;;;8.87;1.60;;;7.60;99.90;;;;;;4167356;28;20213;-76
2023/02/18 03:09:55;;;;;;;5.03;1.70;;;7.60;99.90;;;;;;4162911;28;20476;-77
2023/02/18 03:12:06;;;;;;;10.03;2.17;;;7.60;99.90;;;;;;4161872;28;20473;-76
2023/02/18 03:14:14;;;;;;;5.83;2.03;;;7.60;99.90;;;;;;4161992;28;20484;-77
2023/02/18 03:16:26;;;;;;;7.60;2.07;;;7.70;99.90;;;;;;4161399;28;20449;-76
2023/02/18 03:18:36;;;;;;;10.10;2.03;;;7.70;99.90;;;;;;4161603;28;20460;-76
2023/02/18 03:20:43;;;;;;;8.40;2.10;;;7.70;99.90;;;;;;4161876;28;20485;-76
2023/02/18 03:22:48;;;;;;;7.13;2.23;;;7.80;99.90;;;;;;4161767;28;20489;-76
2023/02/18 03:24:53;;;;;;;12.00;2.20;;;7.70;99.90;;;;;;4161911;28;20495;-76
2023/02/18 03:26:58;;;;;;;6.23;1.53;;;7.70;99.90;;;;;;4162899;28;20465;-76
2023/02/18 03:29:04;;;;;;;7.90;2.20;;;7.70;99.90;;;;;;4162518;28;20454;-77
2023/02/18 03:31:09;;;;;;;8.17;1.73;;;7.70;99.90;;;;;;4160837;28;20456;-76
2023/02/18 03:33:17;;;;;;;7.53;2.10;;;7.70;99.90;;;;;;4163777;28;21141;-76
2023/02/18 03:35:19;;;;;;;11.53;2.23;;;7.70;99.90;;;;;;4161082;28;20537;-76
2023/02/18 03:37:23;;;;;;;10.00;2.27;;;7.70;99.90;;;;;;4162336;28;20548;-76
2023/02/18 03:39:27;;;;;;;17.53;2.30;;;7.70;99.90;;;;;;4160836;28;20466;-76
2023/02/18 03:41:30;;;;;;;13.90;2.17;;;7.70;99.90;;;;;;4162434;28;20495;-76
2023/02/18 03:43:32;;;;;;;7.50;1.83;;;7.70;99.90;;;;;;4162060;28;21045;-76
2023/02/18 03:45:33;;;;;;;11.27;2.60;;;7.70;99.90;;;;;;4162318;28;21051;-76
2023/02/18 03:47:37;;;;;;;11.97;2.00;;;7.70;99.90;;;;;;4179578;28;20453;-76
2023/02/18 03:49:39;;;;;;;7.53;1.63;;;7.60;99.90;;;;;;4177602;28;20456;-76
2023/02/18 03:51:42;;;;;;;7.63;2.00;;;7.60;99.90;;;;;;4162907;28;20515;-76
2023/02/18 03:53:45;;;;;;;6.33;1.67;;;7.60;99.90;;;;;;4161141;28;20569;-76
2023/02/18 03:55:47;;;;;;;10.10;1.73;;;7.60;99.90;;;;;;4161866;28;20469;-76
2023/02/18 03:57:49;;;;;;;12.57;1.50;;;7.60;99.90;;;;;;4154111;28;20546;-76
2023/02/18 03:59:51;;;;;;;10.80;3.00;;;7.60;99.90;;;;;;4159768;28;20847;-76
2023/02/18 04:01:53;;;;;;;7.73;1.93;;;7.60;99.90;;;;;;4162358;28;20600;-76
2023/02/18 04:03:55;;;;;;;8.83;1.50;;;7.60;99.90;;;;;;4157864;28;21049;-76
2023/02/18 04:05:57;;;;;;;7.87;1.90;;;7.60;99.90;;;;;;4157330;28;20508;-76
2023/02/18 04:07:59;;;;;;;8.63;2.10;;;7.60;99.90;;;;;;4163210;28;20481;-76
2023/02/18 04:10:02;;;;;;;7.17;1.80;;;7.60;99.90;;;;;;4162187;28;20242;-76
2023/02/18 04:12:04;;;;;;;11.27;2.70;;;7.60;99.90;;;;;;4162148;28;20495;-77
2023/02/18 04:14:07;;;;;;;9.47;1.60;;;7.60;99.90;;;;;;4162229;28;20457;-76
2023/02/18 04:16:09;;;;;;;6.20;1.60;;;7.60;99.90;;;;;;4162210;28;20523;-76
2023/02/18 04:18:11;;;;;;;10.70;1.87;;;7.60;99.90;;;;;;4164252;28;20548;-76
2023/02/18 04:20:13;;;;;;;6.90;1.30;;;7.60;99.90;;;;;;4162474;28;20486;-76
2023/02/18 04:22:15;;;;;;;7.63;1.80;;;7.60;99.90;;;;;;4163430;28;21021;-76
2023/02/18 04:24:17;;;;;;;7.37;1.50;;;7.60;99.90;;;;;;4162851;28;20450;-76
2023/02/18 04:26:20;;;;;;;9.47;1.60;;;7.60;99.90;;;;;;4163528;28;20540;-77
2023/02/18 04:28:22;;;;;;;10.20;1.80;;;7.60;99.90;;;;;;4160087;28;20501;-76
2023/02/18 04:30:24;;;;;;;7.53;1.90;;;7.60;99.90;;;;;;4162148;28;20450;-76
2023/02/18 04:32:26;;;;;;;9.90;2.10;;;7.50;99.90;;;;;;4162382;28;20520;-76
2023/02/18 04:34:28;;;;;;;7.77;1.93;;;7.50;99.90;;;;;;4163207;28;20487;-77
2023/02/18 04:36:30;;;;;;;10.67;2.30;;;7.60;99.90;;;;;;4163171;28;20484;-76
2023/02/18 04:38:31;;;;;;;14.13;2.67;;;7.60;99.90;;;;;;4163584;28;20450;-76
2023/02/18 04:40:34;;;;;;;7.60;2.43;;;7.60;99.90;;;;;;4163650;28;20543;-76
2023/02/18 04:42:37;;;;;;;10.00;2.67;;;7.60;99.90;;;;;;4177638;28;20546;-76
2023/02/18 04:44:39;;;;;;;11.57;3.10;;;7.60;99.90;;;;;;4161726;28;20458;-76
2023/02/18 04:46:41;;;;;;;10.07;3.03;;;7.50;99.90;;;;;;4162421;28;20495;-76
2023/02/18 04:48:43;;;;;;;10.80;3.10;;;7.60;99.90;;;;;;4161173;28;20895;-76
2023/02/18 04:50:45;;;;;;;16.70;3.70;;;7.60;99.90;;;;;;4160960;28;20443;-77
2023/02/18 04:52:47;;;;;;;11.37;3.70;;;7.60;99.90;;;;;;4161314;28;20493;-76
2023/02/18 04:54:49;;;;;;;12.53;3.80;;;7.50;99.90;;;;;;4160307;28;20465;-76
2023/02/18 04:56:51;;;;;;;19.83;5.07;;;7.60;99.90;;;;;;4161134;28;20488;-76
2023/02/18 04:58:54;;;;;;;10.37;3.50;;;7.60;99.90;;;;;;4158775;28;20478;-76
2023/02/18 05:00:59;;;;;;;12.10;4.23;;;7.50;99.90;;;;;;4159769;28;20535;-76
2023/02/18 05:03:01;;;;;;;16.47;5.03;;;7.50;99.90;;;;;;4159224;28;20971;-76
2023/02/18 05:05:03;;;;;;;14.37;4.77;;;7.60;99.90;;;;;;4160739;28;20536;-76
2023/02/18 05:07:05;;;;;;;15.53;5.33;;;7.60;99.90;;;;;;4158683;28;20485;-76
2023/02/18 05:09:07;;;;;;;15.80;5.83;;;7.60;99.90;;;;;;4160292;28;20533;-76
2023/02/18 05:11:12;;;;;;;14.37;6.00;;;7.60;99.90;;;;;;4161567;28;20492;-76
2023/02/18 05:13:14;;;;;;;16.20;5.67;;;7.60;99.90;;;;;;4160229;28;20572;-76
2023/02/18 05:15:17;;;;;;;17.97;5.57;;;7.60;99.90;;;;;;4162186;28;20215;-76
2023/02/18 05:17:19;;;;;;;15.83;5.77;;;7.60;99.90;;;;;;4162891;28;20872;-75
2023/02/18 05:19:21;;;;;;;15.30;5.20;;;7.60;99.90;;;;;;4160570;28;20484;-75
2023/02/18 05:21:23;;;;;;;16.67;5.37;;;7.60;99.90;;;;;;4161660;28;20576;-75
2023/02/18 05:23:26;;;;;;;17.40;5.63;;;7.60;99.90;;;;;;4149440;28;20490;-76
2023/02/18 05:25:28;;;;;;;14.27;5.53;;;7.60;99.90;;;;;;4156822;28;20450;-75
2023/02/18 05:27:30;;;;;;;11.30;5.23;;;7.60;99.90;;;;;;4162835;28;20580;-75
2023/02/18 05:29:32;;;;;;;14.23;5.83;;;7.60;99.90;;;;;;4161285;28;21047;-74
2023/02/18 05:31:37;;;;;;;13.37;5.40;;;7.60;99.90;;;;;;4154291;28;20859;-74
2023/02/18 05:33:38;;;;;;;15.00;5.60;;;7.70;99.90;;;;;;4161253;28;20556;-74
2023/02/18 05:35:40;;;;;;;15.53;5.80;;;7.70;99.90;;;;;;4162150;28;20542;-76
2023/02/18 05:37:42;;;;;;;20.83;5.87;;;7.70;99.90;;;;;;4161899;28;20541;-75
2023/02/18 05:39:44;;;;;;;16.00;6.17;;;7.70;99.90;;;;;;4161207;28;20959;-74
2023/02/18 05:41:49;;;;;;;10.40;5.33;;;7.70;99.90;;;;;;4161848;28;20481;-76
2023/02/18 05:46:10;;;;;;;15.77;6.60;;;7.70;99.90;;;;;;4161383;28;20909;-74
2023/02/18 05:48:13;;;;;;;16.03;6.63;;;7.70;99.90;;;;;;4162836;28;20537;-74
2023/02/18 05:50:15;;;;;;;21.83;8.13;;;7.80;99.90;;;;;;4162664;28;20449;-74
2023/02/18 05:52:17;;;;;;;14.97;6.90;;;7.80;99.90;;;;;;4162822;28;20508;-74
2023/02/18 05:54:19;;;;;;;18.20;7.63;;;7.70;99.90;;;;;;4161102;28;21035;-75
2023/02/18 05:56:21;;;;;;;17.13;7.27;;;7.80;99.90;;;;;;4164780;28;20827;-75
2023/02/18 05:58:23;;;;;;;17.47;8.03;;;7.80;99.90;;;;;;4164528;28;20460;-74
2023/02/18 06:00:25;;;;;;;20.33;7.93;;;7.80;99.90;;;;;;4164372;28;20557;-76
2023/02/18 06:02:27;;;;;;;20.30;8.60;;;7.90;99.90;;;;;;4164652;28;20523;-77
2023/02/18 06:04:30;;;;;;;20.60;8.43;;;7.90;99.90;;;;;;4178047;28;20211;-74
2023/02/18 06:06:34;;;;;;;18.80;7.80;;;7.90;99.90;;;;;;4162770;28;20541;-76
2023/02/18 06:08:36;;;;;;;24.20;9.47;;;7.90;99.90;;;;;;4163024;28;20210;-74
2023/02/18 06:10:40;;;;;;;17.53;8.67;;;7.90;99.90;;;;;;4162564;28;20460;-74
2023/02/18 06:12:42;;;;;;;22.93;9.70;;;7.90;99.90;;;;;;4161893;28;20889;-73
2023/02/18 06:14:44;;;;;;;24.83;10.43;;;8.00;99.90;;;;;;4165219;28;21192;-75
2023/02/18 06:16:46;;;;;;;25.87;10.57;;;7.90;99.90;;;;;;4162791;28;20540;-74
2023/02/18 06:18:48;;;;;;;27.00;10.60;;;7.90;99.90;;;;;;4163677;28;20545;-74
2023/02/18 06:20:51;;;;;;;24.13;10.87;;;7.90;99.90;;;;;;4164455;28;20507;-74
2023/02/18 06:22:53;;;;;;;32.43;11.67;;;7.90;99.90;;;;;;4164382;28;20752;-74
2023/02/18 06:24:55;;;;;;;30.63;11.80;;;7.90;99.90;;;;;;4163213;28;20775;-74
2023/02/18 06:26:57;;;;;;;25.40;11.83;;;7.80;99.90;;;;;;4165108;28;20450;-74
2023/02/18 06:28:59;;;;;;;31.53;12.17;;;7.80;99.90;;;;;;4161850;28;20484;-76
2023/02/18 06:31:01;;;;;;;29.57;12.17;;;7.80;99.90;;;;;;4163985;28;20552;-76
2023/02/18 06:33:03;;;;;;;31.07;11.63;;;7.80;99.90;;;;;;4163867;28;21466;-76
2023/02/18 06:35:06;;;;;;;27.77;11.27;;;7.80;99.90;;;;;;4163136;28;20454;-73
2023/02/18 06:37:09;;;;;;;27.37;11.20;;;7.80;99.90;;;;;;4161261;28;20202;-75
2023/02/18 06:39:11;;;;;;;26.67;11.07;;;7.80;99.90;;;;;;4162871;28;20458;-74
2023/02/18 06:41:14;;;;;;;29.20;11.20;;;7.80;99.90;;;;;;4177298;28;20445;-75
2023/02/18 06:43:16;;;;;;;31.17;11.67;;;7.80;99.90;;;;;;4163268;28;20477;-74
2023/02/18 06:45:18;;;;;;;29.87;11.13;;;7.80;99.90;;;;;;4162245;28;20484;-75
2023/02/18 06:47:20;;;;;;;25.97;11.33;;;7.80;99.90;;;;;;4163253;28;20978;-73
2023/02/18 06:49:22;;;;;;;29.83;12.10;;;7.80;99.90;;;;;;4164873;28;21033;-74
2023/02/18 06:51:24;;;;;;;31.10;12.10;;;7.80;99.90;;;;;;4164348;28;20939;-74
2023/02/18 06:53:27;;;;;;;33.50;12.57;;;7.80;99.90;;;;;;4165557;28;20473;-73
2023/02/18 06:55:29;;;;;;;30.10;11.90;;;7.80;99.90;;;;;;4163513;28;20548;-76
2023/02/18 06:57:31;;;;;;;28.23;12.07;;;7.80;99.90;;;;;;4164902;28;20473;-75
2023/02/18 06:59:33;;;;;;;33.30;12.20;;;7.80;99.90;;;;;;4163727;28;20476;-75
2023/02/18 07:01:35;;;;;;;29.00;11.90;;;7.80;99.90;;;;;;4160680;28;20513;-75
2023/02/18 07:03:37;;;;;;;34.00;12.70;;;7.80;99.90;;;;;;4161649;28;20474;-78
2023/02/18 07:05:39;;;;;;;32.70;12.50;;;7.80;99.90;;;;;;4161126;28;20849;-77
2023/02/18 07:07:43;;;;;;;26.07;11.33;;;7.90;99.90;;;;;;4173006;28;21081;-75
2023/02/18 07:09:47;;;;;;;29.73;11.37;;;7.80;99.90;;;;;;4160871;28;20449;-74
2023/02/18 07:11:49;;;;;;;33.87;11.33;;;7.80;99.90;;;;;;4160235;28;20468;-77
2023/02/18 07:13:51;;;;;;;28.47;12.07;;;7.80;99.90;;;;;;4160711;28;20516;-75
2023/02/18 07:15:52;;;;;;;33.30;11.27;;;7.80;99.90;;;;;;4162673;28;20672;-75
2023/02/18 07:17:55;;;;;;;27.50;11.03;;;7.80;99.90;;;;;;4154282;28;20458;-75
2023/02/18 07:19:57;;;;;;;34.60;11.87;;;7.80;99.90;;;;;;4163218;28;20454;-75
2023/02/18 07:22:00;;;;;;;31.27;12.00;;;7.90;99.90;;;;;;4164038;28;21408;-76
2023/02/18 07:24:02;;;;;;;31.03;12.17;;;7.90;99.90;;;;;;4162895;28;20207;-77
2023/02/18 07:26:07;;;;;;;40.17;15.20;;;7.90;99.90;;;;;;4163941;28;20478;-75
2023/02/18 07:28:11;;;;;;;36.90;13.93;;;7.90;99.90;;;;;;4160726;28;20482;-75
2023/02/18 07:30:14;;;;;;;34.27;12.40;;;7.90;99.90;;;;;;4164720;28;20863;-76
2023/02/18 07:32:18;;;;;;;32.40;12.17;;;7.90;99.90;;;;;;4163028;28;20481;-74
2023/02/18 07:34:24;;;;;;;30.60;11.50;;;7.90;99.90;;;;;;4161960;28;20450;-74
2023/02/18 07:36:25;;;;;;;32.37;11.33;;;8.00;99.90;;;;;;4163702;28;20461;-74
2023/02/18 07:38:29;;;;;;;35.40;11.70;;;8.00;99.90;;;;;;4163987;28;20528;-74
2023/02/18 07:40:31;;;;;;;27.73;10.90;;;8.00;99.90;;;;;;4164558;28;20548;-73
2023/02/18 07:42:34;;;;;;;25.60;10.50;;;8.00;99.90;;;;;;4161598;28;21303;-75
2023/02/18 07:44:37;;;;;;;26.30;10.80;;;8.00;99.90;;;;;;4165388;28;20537;-75
2023/02/18 07:46:40;;;;;;;26.00;10.20;;;8.00;99.90;;;;;;4162608;28;20218;-75
2023/02/18 07:48:42;;;;;;;25.33;9.73;;;8.10;99.90;;;;;;4163416;28;20211;-75
2023/02/18 07:50:45;;;;;;;25.93;9.77;;;8.10;99.90;;;;;;4165002;28;20441;-77
2023/02/18 07:52:47;;;;;;;24.87;9.57;;;8.10;99.90;;;;;;4163999;28;21030;-77
2023/02/18 07:54:49;;;;;;;24.90;9.43;;;8.20;99.90;;;;;;4157983;28;21020;-78
2023/02/18 07:56:51;;;;;;;22.43;9.60;;;8.20;99.90;;;;;;4162897;28;20438;-77
2023/02/18 07:58:55;;;;;;;22.30;10.10;;;8.20;99.90;;;;;;4160426;28;20822;-77
2023/02/18 08:00:57;;;;;;;21.50;8.50;;;8.30;99.90;;;;;;4168819;28;20445;-76
2023/02/18 08:02:59;;;;;;;21.90;8.90;;;8.30;99.90;;;;;;4167012;28;20600;-77
2023/02/18 08:05:01;;;;;;;18.77;8.40;;;8.30;99.90;;;;;;4160833;28;20544;-77
2023/02/18 08:07:03;;;;;;;20.17;8.87;;;8.40;99.90;;;;;;4157505;28;20488;-76
2023/02/18 08:09:06;;;;;;;20.10;8.20;;;8.40;99.90;;;;;;4158898;28;20548;-77
2023/02/18 08:11:08;;;;;;;21.40;8.87;;;8.50;99.90;;;;;;4161569;28;20536;-76
2023/02/18 08:13:10;;;;;;;21.10;8.07;;;8.50;99.90;;;;;;4162222;28;20501;-77
2023/02/18 08:15:14;;;;;;;17.00;8.30;;;8.50;99.90;;;;;;4161240;28;20816;-76
2023/02/18 08:17:16;;;;;;;15.40;7.40;;;8.50;99.90;;;;;;4159000;28;20464;-77
2023/02/18 08:19:18;;;;;;;15.70;6.83;;;8.60;99.90;;;;;;4164470;28;20620;-76
2023/02/18 08:21:23;;;;;;;13.27;6.20;;;8.60;99.90;;;;;;4159008;28;20255;-78
2023/02/18 08:23:25;;;;;;;13.10;6.07;;;8.60;99.90;;;;;;4159177;28;20263;-77
2023/02/18 08:25:27;;;;;;;16.97;6.40;;;8.70;99.90;;;;;;4162878;28;20199;-77
2023/02/18 08:27:29;;;;;;;16.97;6.23;;;8.70;99.90;;;;;;4178251;28;20229;-75
2023/02/18 08:29:31;;;;;;;13.70;6.40;;;8.70;99.90;;;;;;4162105;28;20234;-75
2023/02/18 08:31:34;;;;;;;9.00;5.43;;;8.80;99.90;;;;;;4161242;28;20290;-77
2023/02/18 08:33:36;;;;;;;10.33;4.93;;;8.80;99.90;;;;;;4159731;28;20305;-75
2023/02/18 08:35:38;;;;;;;9.67;4.77;;;8.90;99.90;;;;;;4162327;28;20326;-75
2023/02/18 08:37:40;;;;;;;9.40;4.80;;;8.90;99.90;;;;;;4160549;28;20200;-75
2023/02/18 08:39:42;;;;;;;9.37;4.30;;;8.90;99.90;;;;;;4151056;28;20659;-77
2023/02/18 08:41:44;;;;;;;7.53;3.90;;;8.90;99.90;;;;;;4162367;28;20476;-76
2023/02/18 08:43:47;;;;;;;5.80;3.00;;;8.90;99.90;;;;;;4161289;28;20309;-76
2023/02/18 08:45:49;;;;;;;8.00;3.10;;;8.90;99.90;;;;;;4173421;28;20271;-76
2023/02/18 08:47:52;;;;;;;4.50;2.70;;;8.90;99.90;;;;;;4156289;28;20291;-77
2023/02/18 08:49:54;;;;;;;4.10;2.47;;;9.00;99.90;;;;;;4158221;28;20239;-77
2023/02/18 08:51:56;;;;;;;6.30;2.07;;;9.00;99.90;;;;;;4160565;28;20302;-77
2023/02/18 08:53:58;;;;;;;5.70;2.00;;;9.10;99.90;;;;;;4159032;28;20230;-77
2023/02/18 08:56:00;;;;;;;3.07;1.80;;;9.10;99.90;;;;;;4161202;28;20736;-77
2023/02/18 08:58:05;;;;;;;2.77;1.63;;;9.10;99.90;;;;;;4162492;28;20242;-76
2023/02/18 09:00:08;;;;;;;4.47;1.70;;;9.20;99.90;;;;;;4161390;28;20293;-77
2023/02/18 09:02:13;;;;;;;3.90;1.80;;;9.20;99.90;;;;;;4158332;28;20233;-76
2023/02/18 09:04:16;;;;;;;2.67;1.40;;;9.30;99.90;;;;;;4161012;28;20195;-77
2023/02/18 09:06:18;;;;;;;4.57;1.40;;;9.30;99.90;;;;;;4159046;28;20246;-77
2023/02/18 09:08:20;;;;;;;2.83;1.40;;;9.30;99.90;;;;;;4162998;28;20202;-77
2023/02/18 09:10:22;;;;;;;1.37;1.00;;;9.30;99.90;;;;;;4161192;28;20294;-77
2023/02/18 09:12:24;;;;;;;3.43;1.30;;;9.30;99.90;;;;;;4163004;28;20267;-77
2023/02/18 09:14:26;;;;;;;2.20;1.40;;;9.40;99.90;;;;;;4159921;28;20677;-77
2023/02/18 09:16:28;;;;;;;3.00;1.80;;;9.40;99.90;;;;;;4161469;28;20216;-77
2023/02/18 09:18:31;;;;;;;4.73;1.73;;;9.40;99.90;;;;;;4177421;28;20749;-76
2023/02/18 09:20:34;;;;;;;1.43;1.27;;;9.40;99.90;;;;;;4159813;28;20231;-76
2023/02/18 09:22:36;;;;;;;2.27;1.53;;;9.50;99.90;;;;;;4159700;28;20926;-77
2023/02/18 09:24:39;;;;;;;3.33;1.23;;;9.40;99.90;;;;;;4161916;28;20207;-77
2023/02/18 09:26:40;;;;;;;2.73;1.37;;;9.50;99.90;;;;;;4161192;28;20241;-76
2023/02/18 09:28:43;;;;;;;3.13;1.40;;;9.50;99.90;;;;;;4161713;28;20367;-77
2023/02/18 09:30:45;;;;;;;1.60;1.00;;;9.50;99.90;;;;;;4164287;28;20269;-76
2023/02/18 09:32:47;;;;;;;1.90;0.97;;;9.50;99.90;;;;;;4163609;28;20874;-76
2023/02/18 09:34:49;;;;;;;1.37;0.93;;;9.50;99.90;;;;;;4162463;28;20212;-76
2023/02/18 09:36:52;;;;;;;1.10;0.80;;;9.60;99.90;;;;;;4166025;28;20203;-76
2023/02/18 09:38:54;;;;;;;1.07;0.73;;;9.60;99.90;;;;;;4165712;28;20624;-76
2023/02/18 09:40:59;;;;;;;1.10;0.77;;;9.60;99.90;;;;;;4160351;28;20697;-76
2023/02/18 09:43:02;;;;;;;3.10;1.10;;;9.70;99.90;;;;;;4166574;28;20326;-76
2023/02/18 09:45:11;;;;;;;1.00;0.53;;;9.70;99.90;;;;;;4168138;28;20191;-76
2023/02/18 09:47:16;;;;;;;0.83;0.60;;;9.70;99.90;;;;;;4165602;28;20208;-76
2023/02/18 09:49:22;;;;;;;1.67;0.50;;;9.80;99.90;;;;;;4163146;28;20990;-75
2023/02/18 09:51:24;;;;;;;1.07;0.50;;;9.80;99.90;;;;;;4164693;28;20291;-76
2023/02/18 09:53:28;;;;;;;1.23;0.60;;;9.80;99.90;;;;;;4155887;28;20676;-75
2023/02/18 09:55:32;;;;;;;0.73;0.60;;;9.90;99.90;;;;;;4158538;28;20217;-76
2023/02/18 09:57:40;;;;;;;0.80;0.60;;;9.90;99.90;;;;;;4165026;28;20206;-76
2023/02/18 09:59:44;;;;;;;0.77;0.77;;;9.90;99.90;;;;;;4163075;28;20205;-76
2023/02/18 10:01:48;;;;;;;0.50;0.50;;;10.00;99.90;;;;;;4164479;28;20208;-76
2023/02/18 10:03:50;;;;;;;0.87;0.50;;;10.10;99.90;;;;;;4162515;28;20310;-76
2023/02/18 10:05:57;;;;;;;0.60;0.50;;;10.10;99.90;;;;;;4164517;28;20242;-76
2023/02/18 10:08:04;;;;;;;1.53;0.60;;;10.10;99.90;;;;;;4166140;28;20203;-76
2023/02/18 10:10:18;;;;;;;0.80;0.50;;;10.20;99.90;;;;;;4162116;28;20216;-76
2023/02/18 10:12:22;;;;;;;0.50;0.30;;;10.40;99.90;;;;;;4164982;28;20206;-76
2023/02/18 10:14:26;;;;;;;0.30;0.30;;;10.30;99.90;;;;;;4157817;28;20214;-77
2023/02/18 10:16:28;;;;;;;0.90;0.53;;;10.40;99.90;;;;;;4180555;28;20201;-77
2023/02/18 10:18:32;;;;;;;0.37;0.30;;;10.50;99.90;;;;;;4165424;28;20256;-77
2023/02/18 10:20:34;;;;;;;0.90;0.90;;;10.50;99.90;;;;;;4166716;28;20264;-77
2023/02/18 10:22:39;;;;;;;3.00;2.70;;;10.50;99.90;;;;;;4165052;28;20257;-77
2023/02/18 10:24:46;;;;;;;2.20;1.80;;;10.60;99.90;;;;;;4159546;28;20277;-77
2023/02/18 10:26:50;;;;;;;0.97;0.97;;;10.70;99.90;;;;;;4163757;28;20985;-77
2023/02/18 10:28:52;;;;;;;1.93;0.60;;;10.80;99.90;;;;;;4162538;28;20940;-77
2023/02/18 10:30:59;;;;;;;0.40;0.40;;;10.80;99.90;;;;;;4179444;28;20221;-77
2023/02/18 10:33:17;;;;;;;0.90;0.33;;;10.90;99.90;;;;;;4163203;28;20226;-77
2023/02/18 10:35:27;;;;;;;0.20;0.20;;;10.90;99.90;;;;;;4166737;28;20220;-77
2023/02/18 10:37:43;;;;;;;1.60;0.30;;;10.90;99.90;;;;;;4161288;28;20212;-80
2023/02/18 10:39:57;;;;;;;0.20;0.20;;;10.90;99.90;;;;;;4165333;28;20327;-80
2023/02/18 10:42:14;;;;;;;1.33;0.40;;;10.90;99.90;;;;;;4158180;28;20645;-77
2023/02/18 10:44:30;;;;;;;0.30;0.20;;;10.90;99.90;;;;;;4163874;28;20215;-77
2023/02/18 10:46:40;;;;;;;0.30;0.30;;;10.90;99.90;;;;;;4163272;28;20199;-82
2023/02/18 10:48:55;;;;;;;0.40;0.40;;;11.00;99.90;;;;;;4158365;28;20207;-79
2023/02/18 10:50:59;;;;;;;0.30;0.30;;;11.00;99.90;;;;;;4162583;28;20644;-77